Time;durP1;ratioP1;P1;durP2;ratioP2;P2;SDS_P1;SDS_P2;PMS_P1;PMS_P2;Temp;Humidity;BMP_temperature;BMP_pressure;BME280_temperature;BME280_humidity;BME280_pressure;Samples;Min_cycle;Max_cycle;Signal;HPM_P1;HPM_P2
2021/05/12 00:02:12;;;;;;;0.70;0.60;;;21.40;54.10;;;;;;10451676;28;20683;-10
2021/05/12 00:07:34;;;;;;;1.47;0.90;;;21.50;54.20;;;;;;10451544;28;20683;-9
2021/05/12 00:12:55;;;;;;;0.87;0.57;;;21.30;54.40;;;;;;10451979;28;20587;-11
2021/05/12 00:18:20;;;;;;;0.67;0.60;;;21.30;54.30;;;;;;10489862;28;20192;-8
2021/05/12 00:23:47;;;;;;;0.87;0.50;;;21.40;54.20;;;;;;10492558;28;20556;-10
2021/05/12 00:29:10;;;;;;;1.20;0.60;;;21.40;54.40;;;;;;10488903;28;20189;-9
2021/05/12 00:34:33;;;;;;;0.80;0.70;;;21.50;53.80;;;;;;10482132;28;20629;-9
2021/05/12 00:39:54;;;;;;;1.60;0.63;;;21.50;54.40;;;;;;10492066;28;20211;-10
2021/05/12 00:45:19;;;;;;;1.83;0.70;;;21.30;54.00;;;;;;10494543;28;20216;-8
2021/05/12 00:50:41;;;;;;;1.17;0.73;;;21.30;54.20;;;;;;10500003;28;20196;-10
2021/05/12 00:56:04;;;;;;;0.97;0.67;;;21.30;54.20;;;;;;10468018;28;20212;-7
2021/05/12 01:01:26;;;;;;;0.60;0.60;;;21.30;54.20;;;;;;10458830;28;20193;-10
2021/05/12 01:06:48;;;;;;;0.87;0.60;;;21.40;53.90;;;;;;10457816;28;20583;-10
2021/05/12 01:12:10;;;;;;;0.70;0.70;;;21.40;54.10;;;;;;10459556;28;20197;-9
2021/05/12 01:17:32;;;;;;;0.90;0.60;;;21.40;53.90;;;;;;10489718;28;20200;-10
2021/05/12 01:22:54;;;;;;;0.97;0.50;;;21.30;54.10;;;;;;10499507;28;20246;-8
2021/05/12 01:28:17;;;;;;;0.97;0.70;;;21.40;53.90;;;;;;10492526;28;20200;-11
2021/05/12 01:33:40;;;;;;;0.50;0.50;;;21.40;54.10;;;;;;10489886;28;20683;-10
2021/05/12 01:39:04;;;;;;;1.03;0.60;;;21.30;54.10;;;;;;10497931;28;20203;-9
2021/05/12 01:44:26;;;;;;;0.90;0.60;;;21.30;54.20;;;;;;10497952;28;20216;-9
2021/05/12 01:49:49;;;;;;;1.10;0.60;;;21.30;54.00;;;;;;10498230;28;20192;-10
2021/05/12 01:55:15;;;;;;;0.40;0.40;;;21.30;54.20;;;;;;10497149;28;20208;-10
2021/05/12 02:00:43;;;;;;;0.80;0.50;;;21.60;53.50;;;;;;10497871;28;20269;-10
2021/05/12 02:06:05;;;;;;;0.60;0.40;;;21.60;53.00;;;;;;10491104;28;20231;-10
2021/05/12 02:11:28;;;;;;;1.10;0.70;;;21.40;53.50;;;;;;10489193;28;20203;-10
2021/05/12 02:16:49;;;;;;;1.03;0.70;;;21.30;53.70;;;;;;10470866;28;20262;-10
2021/05/12 02:22:11;;;;;;;1.10;0.80;;;21.30;53.90;;;;;;10455497;28;20201;-10
2021/05/12 02:27:34;;;;;;;0.93;0.40;;;21.30;54.10;;;;;;10454274;28;20288;-9
2021/05/12 02:32:56;;;;;;;0.60;0.57;;;21.30;53.90;;;;;;10455855;28;20233;-9
2021/05/12 02:38:18;;;;;;;0.90;0.50;;;21.30;53.90;;;;;;10454944;28;20201;-10
2021/05/12 02:43:40;;;;;;;1.17;0.60;;;21.30;53.80;;;;;;10454810;28;20592;-9
2021/05/12 02:49:03;;;;;;;0.53;0.53;;;21.40;53.50;;;;;;10454052;28;20201;-10
2021/05/12 02:54:24;;;;;;;0.87;0.57;;;21.30;53.70;;;;;;10456411;28;20216;-9
2021/05/12 02:59:47;;;;;;;0.80;0.70;;;21.30;53.80;;;;;;10487130;28;20196;-11
2021/05/12 03:05:10;;;;;;;0.97;0.67;;;21.30;54.00;;;;;;10493432;28;20216;-9
2021/05/12 03:10:32;;;;;;;0.83;0.67;;;21.30;54.00;;;;;;10453516;28;20197;-10
2021/05/12 03:15:55;;;;;;;2.00;0.60;;;21.30;53.90;;;;;;10506227;22;20289;-12
2021/05/12 03:21:17;;;;;;;0.87;0.60;;;21.20;54.30;;;;;;10495077;28;20208;-12
2021/05/12 03:26:38;;;;;;;0.60;0.60;;;21.30;54.10;;;;;;10492899;28;20228;-12
2021/05/12 03:32:01;;;;;;;2.00;0.80;;;21.30;54.00;;;;;;10492653;28;20208;-12
2021/05/12 03:37:22;;;;;;;0.77;0.40;;;21.20;54.00;;;;;;10493533;28;20262;-13
2021/05/12 03:42:44;;;;;;;1.63;0.60;;;21.40;53.90;;;;;;10492855;28;20223;-12
2021/05/12 03:48:08;;;;;;;0.80;0.70;;;21.60;53.30;;;;;;10491929;28;20200;-13
2021/05/12 03:53:29;;;;;;;0.40;0.40;;;21.50;53.10;;;;;;10489973;28;20219;-13
2021/05/12 03:58:51;;;;;;;0.77;0.67;;;21.50;53.40;;;;;;10492163;28;20575;-12
2021/05/12 04:04:14;;;;;;;0.80;0.60;;;21.40;53.50;;;;;;10493479;28;20215;-12
2021/05/12 04:09:36;;;;;;;1.03;0.60;;;21.40;53.30;;;;;;10491957;28;20663;-13
2021/05/12 04:14:58;;;;;;;1.43;0.67;;;21.40;53.70;;;;;;10493147;28;20355;-13
2021/05/12 04:20:22;;;;;;;0.77;0.60;;;21.40;53.50;;;;;;10500347;28;20200;-13
2021/05/12 04:25:43;;;;;;;1.13;0.70;;;21.40;53.80;;;;;;10506125;28;20216;-12
2021/05/12 04:31:05;;;;;;;0.97;0.63;;;21.50;53.40;;;;;;10507499;28;20651;-12
2021/05/12 04:36:27;;;;;;;0.50;0.50;;;21.40;53.80;;;;;;10505661;28;20266;-12
2021/05/12 04:41:49;;;;;;;1.30;0.73;;;21.50;53.50;;;;;;10501522;28;20694;-15
2021/05/12 04:47:11;;;;;;;1.60;0.60;;;21.40;53.30;;;;;;10503267;28;20243;-12
2021/05/12 04:52:34;;;;;;;0.60;0.60;;;21.40;53.40;;;;;;10464764;28;20220;-12
2021/05/12 04:57:56;;;;;;;0.50;0.50;;;21.40;53.60;;;;;;10463917;28;20192;-12
2021/05/12 05:03:17;;;;;;;1.07;0.80;;;21.40;53.20;;;;;;10464390;28;20221;-14
2021/05/12 05:08:40;;;;;;;0.50;0.50;;;21.50;53.90;;;;;;10491523;28;20200;-14
2021/05/12 05:14:01;;;;;;;0.93;0.60;;;21.70;53.40;;;;;;10505609;28;20903;-12
2021/05/12 05:19:23;;;;;;;1.20;0.70;;;21.60;53.40;;;;;;10505838;28;20204;-12
2021/05/12 05:24:45;;;;;;;0.83;0.60;;;21.60;53.00;;;;;;10505762;28;20224;-14
2021/05/12 05:30:08;;;;;;;0.50;0.50;;;21.60;53.40;;;;;;10498647;28;20250;-13
2021/05/12 05:35:30;;;;;;;1.27;0.60;;;21.60;53.40;;;;;;10498335;28;20208;-13
2021/05/12 05:40:52;;;;;;;3.33;0.90;;;21.60;53.30;;;;;;10479782;28;20900;-13
2021/05/12 05:46:14;;;;;;;1.30;0.63;;;21.50;53.30;;;;;;10456143;28;20259;-24
2021/05/12 05:51:36;;;;;;;1.57;1.10;;;21.50;53.30;;;;;;10456102;28;20197;-12
2021/05/12 05:57:04;;;;;;;1.10;0.87;;;21.50;53.80;;;;;;10454531;28;20239;-12
2021/05/12 06:02:26;;;;;;;1.97;1.10;;;21.40;53.70;;;;;;10456367;28;20243;-13
2021/05/12 06:07:47;;;;;;;1.60;1.07;;;21.30;53.60;;;;;;10456604;28;20220;-13
2021/05/12 06:13:09;;;;;;;1.43;1.20;;;21.30;54.10;;;;;;10455942;28;20231;-14
2021/05/12 06:18:31;;;;;;;3.43;1.37;;;21.60;53.30;;;;;;10479162;28;20218;-14
2021/05/12 06:23:53;;;;;;;2.87;1.60;;;21.60;52.90;;;;;;10495950;28;20753;-13
2021/05/12 06:29:16;;;;;;;2.20;1.53;;;21.70;52.50;;;;;;10477919;28;20211;-13
2021/05/12 06:34:37;;;;;;;4.10;2.13;;;21.80;52.30;;;;;;10516711;28;20216;-12
2021/05/12 06:39:59;;;;;;;3.53;2.10;;;21.90;52.20;;;;;;10537495;28;20191;-13
2021/05/12 06:45:21;;;;;;;4.60;1.90;;;22.00;52.20;;;;;;10536603;28;20223;-12
2021/05/12 06:50:44;;;;;;;3.10;1.57;;;22.00;52.10;;;;;;10537124;28;20205;-13
2021/05/12 06:56:06;;;;;;;2.73;1.67;;;22.00;51.90;;;;;;10537880;28;20666;-14
2021/05/12 07:01:29;;;;;;;4.43;2.10;;;22.00;51.80;;;;;;10515401;28;20682;-14
2021/05/12 07:28:09;;;;;;;2.33;1.60;;;21.70;52.20;;;;;;10568792;27;21156;-10
2021/05/12 07:33:30;;;;;;;4.93;1.57;;;21.80;52.60;;;;;;10567347;28;20211;-9
2021/05/12 07:38:52;;;;;;;7.87;1.67;;;21.60;53.20;;;;;;10534971;22;20228;-12
2021/05/12 07:44:14;;;;;;;3.97;1.60;;;21.60;53.10;;;;;;10485360;28;20197;-14
2021/05/12 07:49:37;;;;;;;4.67;1.73;;;21.60;53.20;;;;;;10519014;28;20579;-14
2021/05/12 07:54:59;;;;;;;5.00;2.10;;;21.70;53.40;;;;;;10525973;28;20298;-12
2021/05/12 08:00:22;;;;;;;4.27;2.37;;;21.70;53.00;;;;;;10525338;28;20219;-13
2021/05/12 08:05:44;;;;;;;9.73;2.40;;;21.90;52.60;;;;;;10544796;28;20195;-11
2021/05/12 08:11:06;;;;;;;6.53;2.33;;;21.80;53.10;;;;;;10514890;28;20200;-13
2021/05/12 08:16:28;;;;;;;5.77;2.47;;;22.00;52.50;;;;;;10499974;28;20224;-14
2021/05/12 08:21:50;;;;;;;4.10;2.00;;;22.10;52.20;;;;;;10486380;28;20227;-12
2021/05/12 08:27:12;;;;;;;7.47;2.40;;;22.10;52.20;;;;;;10508017;28;20212;-13
2021/05/12 08:32:35;;;;;;;3.87;1.83;;;22.20;52.90;;;;;;10498586;28;20196;-12
2021/05/12 08:37:57;;;;;;;2.93;1.90;;;22.10;52.30;;;;;;10496520;28;20216;-12
2021/05/12 08:43:19;;;;;;;3.50;1.83;;;22.10;52.20;;;;;;10497582;28;20599;-13
2021/05/12 08:48:42;;;;;;;7.10;2.17;;;22.00;52.30;;;;;;10494203;28;20718;-14
2021/05/12 08:54:04;;;;;;;2.53;1.50;;;21.90;52.60;;;;;;10457637;28;20217;-13
2021/05/12 08:59:26;;;;;;;4.53;1.97;;;21.80;52.90;;;;;;10462223;28;20225;-13
2021/05/12 09:04:49;;;;;;;3.73;1.30;;;21.80;52.80;;;;;;10488580;28;20246;-12
2021/05/12 09:10:11;;;;;;;5.17;1.23;;;21.70;53.20;;;;;;10496247;28;20216;-13
2021/05/12 09:15:33;;;;;;;4.23;1.50;;;21.90;53.00;;;;;;10496174;28;20216;-12
2021/05/12 09:20:56;;;;;;;2.50;1.37;;;21.90;52.80;;;;;;10490707;28;20196;-14
2021/05/12 09:26:18;;;;;;;2.80;1.30;;;22.00;52.40;;;;;;10465022;28;20224;-12
2021/05/12 09:31:40;;;;;;;2.53;1.27;;;22.00;52.20;;;;;;10477694;28;20207;-13
2021/05/12 09:37:22;;;;;;;1.73;1.17;;;22.00;52.40;;;;;;10452822;28;20224;-13
2021/05/12 09:42:46;;;;;;;2.57;1.10;;;22.10;52.20;;;;;;10462501;28;20283;-12
2021/05/12 09:48:08;;;;;;;1.63;1.00;;;22.00;52.60;;;;;;10493238;28;20294;-13
2021/05/12 09:53:30;;;;;;;2.37;1.17;;;22.00;52.70;;;;;;10494150;28;20242;-13
2021/05/12 09:58:55;;;;;;;2.30;1.00;;;22.00;52.70;;;;;;10494408;28;20215;-11
2021/05/12 10:04:37;;;;;;;1.87;1.00;;;21.90;53.00;;;;;;10495298;28;20195;-13
2021/05/12 10:09:59;;;;;;;2.20;1.20;;;21.90;53.30;;;;;;10492824;28;20569;-14
2021/05/12 10:15:21;;;;;;;1.87;0.97;;;22.00;52.90;;;;;;10494705;28;20216;-13
2021/05/12 10:20:43;;;;;;;1.10;1.00;;;22.20;52.60;;;;;;10493502;28;20220;-13
2021/05/12 10:26:07;;;;;;;1.43;1.00;;;22.20;51.90;;;;;;10456466;28;20219;-12
2021/05/12 10:31:30;;;;;;;1.63;0.90;;;22.40;51.40;;;;;;10450620;28;20728;-12
2021/05/12 10:37:16;;;;;;;1.30;0.93;;;22.50;51.20;;;;;;10450529;28;20590;-14
2021/05/12 10:43:06;;;;;;;2.00;1.10;;;22.60;50.90;;;;;;10461077;28;20199;-12
2021/05/12 10:48:39;;;;;;;2.00;0.90;;;22.50;51.40;;;;;;10450348;28;20242;-12
2021/05/12 10:54:03;;;;;;;1.47;0.93;;;22.40;51.30;;;;;;10450289;28;20244;-13
2021/05/12 10:59:26;;;;;;;4.23;1.30;;;22.40;51.50;;;;;;10451538;28;20240;-12
2021/05/12 11:05:00;;;;;;;6.03;2.60;;;22.20;51.90;;;;;;10452450;28;20197;-14
2021/05/12 11:10:21;;;;;;;4.43;1.90;;;21.80;51.90;;;;;;10478991;28;20226;-13
2021/05/12 11:15:51;;;;;;;3.30;1.60;;;21.90;52.00;;;;;;10491740;28;20301;-13
2021/05/12 11:21:25;;;;;;;4.10;1.67;;;22.10;51.90;;;;;;10491955;28;20805;-13
2021/05/12 11:27:16;;;;;;;3.73;1.47;;;22.10;51.90;;;;;;10452526;28;20213;-13
2021/05/12 11:32:39;;;;;;;2.87;1.30;;;22.20;51.20;;;;;;10460225;28;20204;-12
2021/05/12 11:38:01;;;;;;;1.53;1.00;;;22.20;51.70;;;;;;10490351;28;20247;-13
2021/05/12 11:43:30;;;;;;;1.20;0.90;;;22.20;51.80;;;;;;10491028;28;20219;-12
2021/05/12 11:48:54;;;;;;;0.97;0.83;;;22.20;51.70;;;;;;10491057;28;20267;-14
2021/05/12 11:54:18;;;;;;;2.10;0.93;;;22.00;52.10;;;;;;10488257;28;20221;-12
2021/05/12 11:59:40;;;;;;;3.07;1.17;;;22.00;52.30;;;;;;10448310;28;20757;-13
2021/05/12 12:05:07;;;;;;;20.70;2.27;;;22.00;52.20;;;;;;10458668;28;20251;-13
2021/05/12 12:10:28;;;;;;;39.50;4.17;;;22.00;52.10;;;;;;10487941;28;20700;-12
2021/05/12 12:15:50;;;;;;;61.27;4.97;;;22.10;51.80;;;;;;10499385;28;20754;-12
2021/05/12 12:21:12;;;;;;;70.03;7.43;;;22.10;51.80;;;;;;10491538;28;20197;-13
2021/05/12 12:26:35;;;;;;;83.83;8.90;;;22.10;52.10;;;;;;10521877;28;20212;-12
2021/05/12 12:32:00;;;;;;;101.17;10.60;;;22.10;51.90;;;;;;10458093;28;20323;-12
2021/05/12 12:37:30;;;;;;;90.53;11.30;;;22.00;52.30;;;;;;10498278;28;20216;-12
2021/05/12 12:42:53;;;;;;;78.10;10.23;;;22.00;52.50;;;;;;10492696;28;20189;-13
2021/05/12 12:48:24;;;;;;;79.43;10.17;;;22.00;52.60;;;;;;10463973;28;20220;-12
2021/05/12 12:53:54;;;;;;;62.70;9.00;;;22.30;52.00;;;;;;10477146;28;20217;-12
2021/05/12 12:59:16;;;;;;;68.37;7.80;;;22.30;51.60;;;;;;10455905;28;20585;-13
2021/05/12 13:04:37;;;;;;;50.93;7.63;;;22.30;51.30;;;;;;10456318;28;20196;-13
2021/05/12 13:10:27;;;;;;;52.27;7.07;;;22.40;51.60;;;;;;10481831;28;20208;-12
2021/05/12 13:15:49;;;;;;;35.77;6.63;;;22.40;51.60;;;;;;10495932;28;20286;-12
2021/05/12 13:21:16;;;;;;;33.47;6.00;;;22.30;51.80;;;;;;10457070;28;20681;-12
2021/05/12 13:26:41;;;;;;;28.60;5.50;;;22.20;51.90;;;;;;10463360;28;20208;-13
2021/05/12 13:32:03;;;;;;;23.90;5.10;;;22.10;52.10;;;;;;10456057;28;20197;-13
2021/05/12 13:37:26;;;;;;;24.60;5.50;;;22.20;51.80;;;;;;10491176;28;20224;-12
2021/05/12 13:42:49;;;;;;;24.13;4.50;;;22.10;51.80;;;;;;10496149;28;20209;-12
2021/05/12 13:48:12;;;;;;;23.27;4.43;;;22.00;52.50;;;;;;10464032;28;20876;-14
2021/05/12 13:53:37;;;;;;;15.53;4.37;;;22.20;51.90;;;;;;10454477;28;20201;-12
2021/05/12 13:59:11;;;;;;;20.20;4.33;;;22.10;52.40;;;;;;10454138;28;20241;-13
2021/05/12 14:04:33;;;;;;;14.67;3.50;;;22.20;51.70;;;;;;10477052;23;20245;-15
2021/05/12 14:09:55;;;;;;;11.67;3.10;;;22.30;51.10;;;;;;10427777;28;20197;-11
2021/05/12 14:15:45;;;;;;;12.00;3.10;;;22.20;51.30;;;;;;10462573;28;20220;-11
2021/05/12 14:21:07;;;;;;;13.37;3.00;;;22.10;51.60;;;;;;10493838;28;20280;-13
2021/05/12 14:26:29;;;;;;;11.10;2.40;;;22.10;51.40;;;;;;10492729;28;20216;-15
2021/05/12 14:31:52;;;;;;;7.30;2.20;;;22.30;51.30;;;;;;10493615;28;20230;-11
2021/05/12 14:37:15;;;;;;;6.33;2.30;;;22.10;51.60;;;;;;10497328;28;20216;-14
2021/05/12 14:42:37;;;;;;;6.23;2.00;;;22.00;51.50;;;;;;10487079;28;20195;-16
2021/05/12 14:48:05;;;;;;;5.53;2.17;;;22.00;51.90;;;;;;10534404;28;20211;-14
2021/05/12 14:53:30;;;;;;;5.60;1.80;;;22.10;51.70;;;;;;10537060;28;20188;-14
2021/05/12 15:04:56;;;;;;;4.97;1.70;;;22.00;51.80;;;;;;10535229;28;20203;-15
2021/05/12 15:10:17;;;;;;;5.97;1.60;;;22.00;51.90;;;;;;10518293;28;20282;-17
2021/05/12 15:15:39;;;;;;;3.57;1.60;;;21.90;51.60;;;;;;10518365;28;20213;-12
2021/05/12 15:21:02;;;;;;;4.20;1.40;;;22.00;51.80;;;;;;10451430;28;20197;-14
2021/05/12 15:26:25;;;;;;;2.47;1.20;;;21.90;52.00;;;;;;10484911;28;20635;-11
2021/05/12 15:31:47;;;;;;;3.80;1.53;;;21.70;52.00;;;;;;10492072;28;20199;-14
2021/05/12 15:37:09;;;;;;;3.50;1.17;;;22.00;51.60;;;;;;10499783;28;20224;-14
2021/05/12 15:42:31;;;;;;;1.97;0.90;;;22.00;50.80;;;;;;10505468;28;20199;-14
2021/05/12 15:47:52;;;;;;;2.20;1.17;;;22.00;51.40;;;;;;10542131;28;20215;-13
2021/05/12 15:53:16;;;;;;;5.90;1.30;;;22.00;51.20;;;;;;10540831;28;20672;-13
2021/05/12 15:58:38;;;;;;;7.97;1.07;;;22.00;51.10;;;;;;10530459;28;20723;-14
2021/05/12 16:03:59;;;;;;;15.13;1.70;;;21.90;51.40;;;;;;10458719;28;20223;-11
2021/05/12 16:09:25;;;;;;;17.37;1.97;;;21.90;51.40;;;;;;10482013;28;20196;-14
2021/05/12 16:14:47;;;;;;;26.40;2.23;;;21.90;51.20;;;;;;10543155;28;20208;-12
2021/05/12 16:20:09;;;;;;;26.30;2.07;;;21.80;51.60;;;;;;10457127;28;20196;-13
2021/05/12 16:25:32;;;;;;;14.47;2.30;;;21.90;51.80;;;;;;10488270;28;20254;-12
2021/05/12 16:30:54;;;;;;;33.43;2.97;;;21.90;52.20;;;;;;10498321;28;20204;-14
2021/05/12 16:36:15;;;;;;;52.30;4.43;;;22.00;51.50;;;;;;10498213;28;20231;-11
2021/05/12 16:41:38;;;;;;;34.00;3.37;;;21.90;51.60;;;;;;10497546;28;20196;-14
2021/05/12 16:47:00;;;;;;;54.07;5.10;;;21.90;51.70;;;;;;10495566;28;20772;-14
2021/05/12 16:52:22;;;;;;;64.70;5.10;;;21.90;51.60;;;;;;10497608;28;20192;-11
2021/05/12 16:57:44;;;;;;;56.50;4.97;;;22.00;51.70;;;;;;10496495;28;20289;-14
2021/05/12 17:03:06;;;;;;;29.07;3.93;;;22.10;51.30;;;;;;10496052;28;20196;-14
2021/05/12 17:08:28;;;;;;;45.37;4.83;;;22.00;51.60;;;;;;10496330;28;20228;-14
2021/05/12 17:13:50;;;;;;;38.30;4.30;;;22.10;51.50;;;;;;10455567;28;20197;-12
2021/05/12 17:19:13;;;;;;;48.17;4.93;;;22.00;51.70;;;;;;10455188;28;20201;-12
2021/05/12 17:24:35;;;;;;;45.17;5.17;;;21.90;51.50;;;;;;10479930;28;20216;-14
2021/05/12 17:29:57;;;;;;;43.53;4.60;;;21.90;51.80;;;;;;10496143;28;20250;-14
2021/05/12 17:35:19;;;;;;;63.20;6.80;;;21.90;51.70;;;;;;10459117;28;20225;-14
2021/05/12 17:40:41;;;;;;;102.13;9.43;;;21.80;51.70;;;;;;10465182;28;20689;-11
2021/05/12 17:46:03;;;;;;;87.70;9.33;;;21.80;51.90;;;;;;10504799;28;20230;-12
2021/05/12 17:51:25;;;;;;;91.77;9.10;;;21.80;52.30;;;;;;10495830;28;20204;-11
2021/05/12 17:56:47;;;;;;;61.40;7.87;;;21.80;52.20;;;;;;10492579;28;20232;-12
2021/05/12 18:02:09;;;;;;;60.47;6.83;;;21.80;51.90;;;;;;10494321;28;20196;-12
2021/05/12 18:07:31;;;;;;;50.67;6.10;;;21.70;52.30;;;;;;10487844;28;20221;-12
2021/05/12 18:13:06;;;;;;;10.30;1.47;;;21.70;51.40;;;;;;10523794;28;20192;-13
2021/05/12 18:18:29;;;;;;;2.63;0.83;;;21.20;48.40;;;;;;10536103;28;20243;-12
2021/05/12 18:23:50;;;;;;;1.60;0.73;;;20.90;48.30;;;;;;10517402;28;20202;-14
2021/05/12 18:29:12;;;;;;;4.67;1.30;;;20.90;48.70;;;;;;10485880;28;20193;-14
2021/05/12 18:34:39;;;;;;;7.67;1.00;;;21.10;50.00;;;;;;10463634;28;20233;-13
2021/05/12 18:40:03;;;;;;;5.47;1.20;;;21.50;49.90;;;;;;10451394;28;20221;-12
2021/05/12 18:45:27;;;;;;;5.13;1.20;;;21.70;49.90;;;;;;10512035;28;20296;-14
2021/05/12 18:50:51;;;;;;;1.60;0.73;;;21.80;49.50;;;;;;10519093;28;20193;-15
2021/05/12 18:56:13;;;;;;;3.27;0.60;;;21.80;49.80;;;;;;10451616;28;20264;-12
2021/05/12 19:01:35;;;;;;;2.20;0.77;;;21.90;49.80;;;;;;10452327;28;20203;-14
2021/05/12 19:07:02;;;;;;;4.27;0.73;;;21.80;50.10;;;;;;10452920;28;20296;-15
2021/05/12 19:12:28;;;;;;;3.50;0.90;;;21.70;50.00;;;;;;10494059;28;20212;-14
2021/05/12 19:17:53;;;;;;;1.23;0.70;;;21.90;50.30;;;;;;10488964;28;20216;-12
2021/05/12 19:23:21;;;;;;;3.60;0.70;;;21.90;50.30;;;;;;10501243;28;20278;-13
2021/05/12 19:28:54;;;;;;;1.97;0.80;;;21.90;50.50;;;;;;10522426;28;20632;-12
2021/05/12 19:40:09;;;;;;;3.17;0.80;;;21.90;50.60;;;;;;10451248;28;20185;-12
2021/05/12 19:45:31;;;;;;;2.27;0.70;;;21.70;50.70;;;;;;10462053;28;20209;-12
2021/05/12 19:50:53;;;;;;;2.57;0.70;;;21.70;50.90;;;;;;10492650;28;20584;-15
2021/05/12 19:56:38;;;;;;;3.50;1.00;;;21.70;50.90;;;;;;10489468;28;20282;-11
2021/05/12 20:02:01;;;;;;;0.90;0.60;;;21.70;50.80;;;;;;10490657;28;20200;-12
2021/05/12 20:07:27;;;;;;;1.67;0.63;;;21.80;50.60;;;;;;10466730;28;20304;-12
2021/05/12 20:12:54;;;;;;;0.53;0.53;;;21.70;50.60;;;;;;10458230;28;20577;-13
2021/05/12 20:18:16;;;;;;;2.30;0.70;;;21.70;51.00;;;;;;10450865;28;20228;-12
2021/05/12 20:23:38;;;;;;;3.33;0.70;;;21.60;50.80;;;;;;10447488;23;20234;-10
2021/05/12 20:29:01;;;;;;;2.47;0.80;;;21.70;50.80;;;;;;10446255;28;20205;-10
2021/05/12 20:40:03;;;;;;;3.67;0.80;;;21.80;50.30;;;;;;10414742;28;20267;-12
2021/05/12 20:45:26;;;;;;;1.57;0.70;;;21.90;50.30;;;;;;10422308;28;20208;-9
2021/05/12 20:50:48;;;;;;;2.93;0.90;;;21.80;50.40;;;;;;10422322;28;20565;-10
2021/05/12 20:56:09;;;;;;;2.70;0.60;;;21.70;50.30;;;;;;10421489;28;20213;-10
2021/05/12 21:01:32;;;;;;;1.80;0.63;;;21.70;51.40;;;;;;10415089;28;20222;-10
2021/05/12 21:06:53;;;;;;;1.37;0.60;;;21.60;50.70;;;;;;10414623;28;20662;-12
2021/05/12 21:12:15;;;;;;;1.30;0.63;;;21.60;50.90;;;;;;10413954;28;20280;-10
2021/05/12 21:17:38;;;;;;;1.73;0.50;;;21.50;51.00;;;;;;10414754;28;20220;-9
2021/05/12 21:23:24;;;;;;;2.27;0.47;;;21.50;51.00;;;;;;10414495;28;20265;-10
2021/05/12 21:28:46;;;;;;;1.10;0.60;;;21.50;51.00;;;;;;10414620;28;20193;-8
2021/05/12 21:34:09;;;;;;;1.13;0.63;;;21.50;51.10;;;;;;10414203;28;20733;-10
2021/05/12 21:39:31;;;;;;;0.83;0.60;;;21.40;51.40;;;;;;10414366;28;20236;-10
2021/05/12 21:44:53;;;;;;;0.87;0.40;;;21.40;51.80;;;;;;10414353;28;20193;-11
2021/05/12 21:50:16;;;;;;;1.33;0.70;;;21.30;51.70;;;;;;10411789;28;20725;-10
2021/05/12 21:55:38;;;;;;;1.07;0.50;;;21.50;51.50;;;;;;10412676;28;20213;-9
2021/05/12 22:01:00;;;;;;;1.50;0.70;;;21.40;51.80;;;;;;10412042;28;20213;-10
2021/05/12 22:06:32;;;;;;;0.77;0.60;;;21.30;51.80;;;;;;10371783;28;20238;-10
2021/05/12 22:23:20;;;;;;;1.23;0.57;;;21.30;51.80;;;;;;10385782;28;20256;-10
2021/05/12 22:34:21;;;;;;;0.57;0.57;;;21.60;51.50;;;;;;10411210;28;20198;-10
2021/05/12 22:39:44;;;;;;;1.33;0.60;;;21.60;51.00;;;;;;10396314;28;20712;-10
2021/05/12 22:45:08;;;;;;;0.67;0.57;;;21.60;51.00;;;;;;10410118;28;20198;-10
2021/05/12 22:50:32;;;;;;;0.70;0.53;;;21.50;51.50;;;;;;10411929;28;20218;-10
2021/05/12 22:56:25;;;;;;;1.90;0.97;;;21.40;51.40;;;;;;10409693;28;20217;-10
2021/05/12 23:01:46;;;;;;;0.60;0.60;;;21.40;51.60;;;;;;10410062;28;20590;-10
2021/05/12 23:07:08;;;;;;;0.90;0.50;;;21.40;51.50;;;;;;10409833;28;20721;-10
2021/05/12 23:12:31;;;;;;;1.00;0.70;;;21.30;51.40;;;;;;10409875;28;20236;-10
2021/05/12 23:17:52;;;;;;;0.53;0.50;;;21.50;51.40;;;;;;10408819;28;20280;-10
2021/05/12 23:23:14;;;;;;;0.90;0.70;;;21.50;51.40;;;;;;10409361;28;20571;-10
2021/05/12 23:28:36;;;;;;;0.63;0.50;;;21.50;51.40;;;;;;10410238;28;20201;-9
2021/05/12 23:33:59;;;;;;;1.80;0.70;;;21.50;51.40;;;;;;10410836;28;20221;-10
2021/05/12 23:39:23;;;;;;;1.13;0.60;;;21.50;51.30;;;;;;10410230;28;20578;-10
2021/05/12 23:44:46;;;;;;;1.43;0.77;;;21.50;51.30;;;;;;10410414;28;20275;-10
2021/05/12 23:50:09;;;;;;;1.10;0.53;;;21.40;51.30;;;;;;10410165;28;20686;-10
2021/05/12 23:55:31;;;;;;;1.13;0.67;;;21.40;51.50;;;;;;10409538;28;20606;-10
